createdAt,value
2017-08-23T00:00:44.420Z,5.20
2017-08-23T00:03:12.754Z,5.53
2017-08-23T00:05:41.062Z,6.50
2017-08-23T00:08:09.379Z,6.67
2017-08-23T00:10:37.726Z,6.63
2017-08-23T00:13:06.038Z,6.50
2017-08-23T00:15:34.342Z,5.10
2017-08-23T00:18:02.678Z,5.53
2017-08-23T00:20:31.024Z,5.50
2017-08-23T00:22:59.334Z,7.00
2017-08-23T00:25:27.665Z,6.60
2017-08-23T00:27:55.976Z,6.27
2017-08-23T00:30:24.295Z,5.70
2017-08-23T00:32:52.647Z,6.00
2017-08-23T00:35:20.958Z,6.20
2017-08-23T00:37:49.288Z,6.70
2017-08-23T00:40:17.634Z,7.23
2017-08-23T00:42:45.948Z,6.70
2017-08-23T00:45:14.258Z,6.83
2017-08-23T00:47:42.597Z,6.83
2017-08-23T00:50:10.922Z,6.27
2017-08-23T00:52:39.226Z,6.23
2017-08-23T00:55:07.557Z,5.50
2017-08-23T00:57:35.919Z,5.80
2017-08-23T01:00:04.230Z,5.80
2017-08-23T01:02:32.574Z,7.00
2017-08-23T01:05:00.881Z,5.70
2017-08-23T01:07:29.182Z,7.80
2017-08-23T01:09:57.518Z,7.00
2017-08-23T01:12:25.835Z,6.63
2017-08-23T01:14:54.141Z,7.43
2017-08-23T01:17:22.468Z,7.60
2017-08-23T01:19:50.762Z,6.77
2017-08-23T01:22:19.054Z,7.90
2017-08-23T01:24:47.390Z,7.70
2017-08-23T01:27:15.715Z,7.67
2017-08-23T01:29:44.021Z,7.30
2017-08-23T01:32:12.358Z,8.90
2017-08-23T01:34:40.668Z,7.10
2017-08-23T01:37:08.973Z,7.47
2017-08-23T01:39:37.295Z,8.00
2017-08-23T01:42:05.618Z,8.30
2017-08-23T01:44:33.930Z,9.47
2017-08-23T01:47:02.244Z,8.63
2017-08-23T01:49:30.533Z,7.60
2017-08-23T01:51:58.837Z,8.63
2017-08-23T01:54:27.169Z,8.80
2017-08-23T01:56:55.481Z,8.80
2017-08-23T01:59:23.797Z,8.83
2017-08-23T02:01:52.142Z,7.70
2017-08-23T02:04:20.442Z,8.03
2017-08-23T02:06:48.749Z,8.73
2017-08-23T02:09:17.075Z,8.70
2017-08-23T02:11:45.385Z,9.77
2017-08-23T02:14:13.691Z,10.00
2017-08-23T02:16:42.017Z,9.57
2017-08-23T02:19:10.305Z,9.67
2017-08-23T02:21:38.592Z,9.90
2017-08-23T02:24:06.925Z,9.33
2017-08-23T02:26:35.234Z,9.47
2017-08-23T02:29:03.528Z,9.27
2017-08-23T02:31:31.873Z,11.33
2017-08-23T02:34:00.169Z,11.13
2017-08-23T02:36:28.477Z,11.23
2017-08-23T02:38:56.808Z,12.40
2017-08-23T02:41:25.109Z,10.43
2017-08-23T02:43:53.407Z,11.37
2017-08-23T02:46:21.741Z,11.67
2017-08-23T02:48:50.033Z,10.30
2017-08-23T02:51:18.346Z,10.03
2017-08-23T02:53:46.681Z,10.70
2017-08-23T02:56:14.978Z,11.10
2017-08-23T02:58:43.396Z,11.67
2017-08-23T03:01:11.722Z,11.50
2017-08-23T03:03:40.026Z,10.63
2017-08-23T03:06:08.320Z,9.73
2017-08-23T03:08:36.646Z,11.00
2017-08-23T03:11:04.955Z,11.17
2017-08-23T03:13:33.260Z,10.33
2017-08-23T03:16:01.578Z,10.77
2017-08-23T03:18:29.886Z,11.00
2017-08-23T03:20:58.182Z,9.93
2017-08-23T03:23:26.507Z,10.30
2017-08-23T03:25:54.806Z,10.17
2017-08-23T03:28:23.122Z,9.17
2017-08-23T03:30:51.502Z,10.13
2017-08-23T03:33:19.794Z,10.60
2017-08-23T03:35:48.080Z,10.17
2017-08-23T03:38:16.405Z,10.77
2017-08-23T03:40:44.706Z,8.63
2017-08-23T03:43:13.002Z,8.40
2017-08-23T03:45:41.317Z,9.63
2017-08-23T03:48:09.608Z,9.93
2017-08-23T03:50:37.902Z,11.53
2017-08-23T03:53:06.229Z,10.50
2017-08-23T03:55:34.574Z,11.50
2017-08-23T03:58:02.870Z,11.10
2017-08-23T04:00:31.197Z,13.10
2017-08-23T04:02:59.509Z,10.90
2017-08-23T04:05:27.801Z,11.40
2017-08-23T04:07:56.128Z,11.80
2017-08-23T04:10:24.422Z,10.53
2017-08-23T04:12:52.724Z,9.83
2017-08-23T04:15:21.032Z,9.37
2017-08-23T04:17:49.350Z,8.30
2017-08-23T04:20:17.640Z,9.27
2017-08-23T04:22:45.967Z,9.20
2017-08-23T04:25:14.259Z,8.37
2017-08-23T04:27:42.572Z,7.17
2017-08-23T04:30:10.952Z,8.30
2017-08-23T04:32:39.247Z,7.43
2017-08-23T04:35:07.539Z,7.40
2017-08-23T04:37:35.863Z,7.00
2017-08-23T04:40:04.156Z,6.37
2017-08-23T04:42:32.450Z,5.67
2017-08-23T04:45:00.777Z,7.40
2017-08-23T04:47:29.081Z,7.33
2017-08-23T04:49:57.369Z,8.03
2017-08-23T04:52:25.688Z,7.83
2017-08-23T04:54:53.992Z,9.47
2017-08-23T04:57:22.292Z,10.17
2017-08-23T04:59:50.635Z,9.50
2017-08-23T05:02:18.954Z,10.13
2017-08-23T05:04:47.297Z,9.50
2017-08-23T05:07:15.630Z,8.37
2017-08-23T05:09:43.991Z,8.63
2017-08-23T05:12:12.286Z,7.80
2017-08-23T05:14:40.618Z,8.13
2017-08-23T05:17:08.930Z,9.00
2017-08-23T05:19:37.246Z,9.97
2017-08-23T05:22:05.598Z,10.00
2017-08-23T05:24:33.918Z,8.80
2017-08-23T05:27:02.252Z,8.50
2017-08-23T05:29:30.572Z,8.17
2017-08-23T05:31:58.876Z,9.40
2017-08-23T05:34:27.288Z,10.60
2017-08-23T05:36:55.638Z,10.60
2017-08-23T05:39:23.939Z,8.17
2017-08-23T05:41:52.249Z,9.10
2017-08-23T05:44:20.590Z,9.43
2017-08-23T05:46:48.900Z,9.97
2017-08-23T05:49:17.205Z,10.73
2017-08-23T05:51:45.541Z,9.90
2017-08-23T05:54:13.850Z,8.40
2017-08-23T05:56:42.188Z,8.20
2017-08-23T05:59:10.512Z,7.93
2017-08-23T06:01:38.809Z,7.83
2017-08-23T06:04:07.105Z,8.20
2017-08-23T06:06:35.429Z,7.17
2017-08-23T06:09:03.736Z,8.90
2017-08-23T06:11:32.046Z,8.20
2017-08-23T06:14:00.380Z,8.43
2017-08-23T06:16:28.682Z,7.80
2017-08-23T06:18:56.985Z,7.77
2017-08-23T06:21:25.319Z,7.47
2017-08-23T06:26:52.405Z,6.60
2017-08-23T06:29:20.713Z,6.67
2017-08-23T06:31:49.018Z,5.87
2017-08-23T06:34:17.355Z,6.00
2017-08-23T06:36:45.656Z,6.30
2017-08-23T06:39:13.960Z,6.57
2017-08-23T06:41:42.293Z,5.97
2017-08-23T06:44:10.603Z,6.10
2017-08-23T06:46:38.904Z,6.30
2017-08-23T06:49:07.233Z,6.50
2017-08-23T06:51:35.533Z,6.60
2017-08-23T06:54:03.842Z,6.30
2017-08-23T06:56:32.166Z,4.73
2017-08-23T06:59:00.467Z,5.43
2017-08-23T07:01:28.761Z,5.00
2017-08-23T07:03:57.085Z,5.53
2017-08-23T07:06:25.378Z,5.53
2017-08-23T07:08:53.684Z,6.67
2017-08-23T07:11:22.030Z,6.07
2017-08-23T07:13:50.333Z,5.97
2017-08-23T07:16:18.625Z,5.93
2017-08-23T07:18:46.969Z,5.53
2017-08-23T07:21:15.270Z,6.40
2017-08-23T07:23:43.569Z,6.63
2017-08-23T07:26:11.931Z,6.97
2017-08-23T07:28:40.220Z,5.43
2017-08-23T07:31:08.513Z,5.20
2017-08-23T07:33:36.849Z,5.27
2017-08-23T07:36:05.145Z,5.10
2017-08-23T07:38:33.445Z,4.87
2017-08-23T07:41:01.788Z,3.93
2017-08-23T07:43:30.089Z,3.50
2017-08-23T07:45:58.476Z,2.90
2017-08-23T07:48:26.813Z,2.90
2017-08-23T07:50:55.118Z,2.60
2017-08-23T07:53:23.429Z,3.20
2017-08-23T07:55:51.769Z,3.73
2017-08-23T07:58:20.080Z,4.13
2017-08-23T08:00:48.385Z,3.70
2017-08-23T08:03:16.717Z,3.73
2017-08-23T08:05:45.021Z,3.20
2017-08-23T08:08:13.325Z,3.80
2017-08-23T08:10:41.662Z,3.50
2017-08-23T08:13:09.960Z,2.93
2017-08-23T08:15:38.267Z,3.40
2017-08-23T08:18:06.597Z,2.90
2017-08-23T08:20:34.901Z,3.57
2017-08-23T08:23:03.210Z,2.87
2017-08-23T08:25:31.546Z,2.60
2017-08-23T08:27:59.842Z,3.50
2017-08-23T08:30:28.133Z,3.63
2017-08-23T08:32:56.456Z,2.73
2017-08-23T08:35:24.749Z,3.40
2017-08-23T08:37:53.046Z,2.67
2017-08-23T08:40:21.378Z,2.47
2017-08-23T08:42:49.680Z,3.90
2017-08-23T08:45:17.988Z,2.83
2017-08-23T08:47:46.317Z,1.90
2017-08-23T08:50:14.621Z,3.30
2017-08-23T08:52:42.913Z,2.13
2017-08-23T08:55:11.253Z,2.33
2017-08-23T08:57:39.553Z,3.10
2017-08-23T09:00:07.851Z,3.47
2017-08-23T09:02:36.172Z,2.30
2017-08-23T09:05:04.473Z,2.33
2017-08-23T09:07:32.769Z,2.80
2017-08-23T09:10:01.101Z,2.80
2017-08-23T09:12:29.403Z,2.90
2017-08-23T09:14:57.709Z,2.70
2017-08-23T09:17:26.044Z,1.63
2017-08-23T09:19:54.344Z,2.30
2017-08-23T09:22:22.640Z,1.40
2017-08-23T09:24:50.969Z,2.40
2017-08-23T09:27:19.277Z,2.13
2017-08-23T09:29:47.571Z,1.60
2017-08-23T09:32:15.915Z,1.37
2017-08-23T09:34:44.225Z,1.40
2017-08-23T09:37:12.521Z,1.30
2017-08-23T09:39:40.858Z,1.37
2017-08-23T09:42:09.148Z,1.83
2017-08-23T09:44:37.466Z,1.20
2017-08-23T09:47:05.792Z,1.30
2017-08-23T09:49:34.098Z,1.63
2017-08-23T09:52:02.393Z,1.80
2017-08-23T09:54:30.713Z,2.70
2017-08-23T09:56:59.009Z,2.97
2017-08-23T09:59:27.307Z,2.70
2017-08-23T10:01:55.653Z,2.60
2017-08-23T10:04:23.948Z,2.13
2017-08-23T10:06:52.253Z,2.37
2017-08-23T10:09:20.593Z,1.40
2017-08-23T10:11:48.897Z,1.97
2017-08-23T10:14:17.213Z,1.30
2017-08-23T10:16:46.362Z,1.67
2017-08-23T10:19:14.661Z,1.40
2017-08-23T10:21:42.962Z,1.20
2017-08-23T10:24:11.289Z,1.30
2017-08-23T10:26:39.597Z,2.40
2017-08-23T10:29:07.907Z,2.57
2017-08-23T10:31:36.217Z,2.00
2017-08-23T10:34:04.543Z,1.57
2017-08-23T10:36:32.837Z,1.50
2017-08-23T10:39:01.144Z,1.50
2017-08-23T10:41:29.441Z,1.43
2017-08-23T10:43:57.774Z,1.67
2017-08-23T10:46:26.080Z,1.30
2017-08-23T10:48:54.386Z,1.73
2017-08-23T10:51:22.700Z,1.97
2017-08-23T10:53:50.996Z,1.83
2017-08-23T10:56:19.325Z,1.73
2017-08-23T10:58:47.638Z,1.90
2017-08-23T11:01:16.015Z,2.63
2017-08-23T11:03:44.315Z,2.07
2017-08-23T11:06:12.638Z,1.83
2017-08-23T11:08:40.947Z,1.83
2017-08-23T11:11:09.301Z,1.50
2017-08-23T11:13:37.616Z,1.50
2017-08-23T11:16:05.941Z,1.87
2017-08-23T11:18:34.252Z,1.80
2017-08-23T11:21:02.548Z,2.07
2017-08-23T11:23:30.853Z,2.73
2017-08-23T11:25:59.149Z,2.73
2017-08-23T11:28:27.465Z,2.10
2017-08-23T11:30:55.761Z,2.87
2017-08-23T11:33:24.080Z,2.97
2017-08-23T11:35:52.386Z,4.13
2017-08-23T11:38:20.676Z,2.97
2017-08-23T11:40:48.980Z,3.00
2017-08-23T11:43:17.272Z,2.70
2017-08-23T11:45:45.584Z,2.10
2017-08-23T11:48:13.881Z,2.30
2017-08-23T11:50:42.180Z,2.27
2017-08-23T11:53:10.486Z,2.40
2017-08-23T11:55:38.836Z,2.47
2017-08-23T11:58:07.134Z,2.40
2017-08-23T12:00:35.442Z,2.17
2017-08-23T12:03:03.753Z,2.33
2017-08-23T12:05:32.045Z,2.53
2017-08-23T12:08:00.353Z,2.33
2017-08-23T12:10:28.657Z,2.50
2017-08-23T12:12:56.970Z,2.87
2017-08-23T12:15:25.272Z,3.10
2017-08-23T12:17:53.656Z,2.97
2017-08-23T12:20:21.974Z,2.90
2017-08-23T12:22:50.301Z,2.60
2017-08-23T12:25:18.597Z,2.60
2017-08-23T12:27:46.901Z,2.60
2017-08-23T12:30:15.204Z,2.53
2017-08-23T12:32:43.493Z,2.03
2017-08-23T12:35:11.797Z,2.27
2017-08-23T12:37:40.101Z,2.60
2017-08-23T12:40:08.437Z,2.10
2017-08-23T12:42:36.733Z,2.30
2017-08-23T12:45:05.043Z,1.83
2017-08-23T12:47:33.348Z,1.87
2017-08-23T12:50:01.657Z,2.40
2017-08-23T12:52:29.975Z,3.03
2017-08-23T12:54:58.274Z,2.43
2017-08-23T12:57:26.609Z,2.00
2017-08-23T12:59:54.913Z,2.97
2017-08-23T13:02:23.213Z,2.47
2017-08-23T13:04:51.521Z,2.67
2017-08-23T13:07:19.825Z,1.93
2017-08-23T13:09:48.179Z,2.30
2017-08-23T13:12:16.476Z,2.40
2017-08-23T13:14:44.793Z,2.43
2017-08-23T13:17:13.090Z,2.93
2017-08-23T13:19:41.449Z,3.20
2017-08-23T13:22:09.764Z,2.80
2017-08-23T13:24:38.069Z,3.20
2017-08-23T13:27:06.412Z,3.57
2017-08-23T13:29:34.738Z,2.50
2017-08-23T13:32:03.036Z,3.17
2017-08-23T13:34:31.335Z,3.17
2017-08-23T13:36:59.645Z,2.87
2017-08-23T13:39:27.951Z,2.17
2017-08-23T13:41:56.296Z,2.20
2017-08-23T13:44:24.589Z,2.87
2017-08-23T13:46:52.881Z,2.37
2017-08-23T13:49:21.190Z,2.90
2017-08-23T13:51:49.491Z,2.20
2017-08-23T13:54:17.797Z,3.00
2017-08-23T13:56:46.101Z,2.47
2017-08-23T13:59:14.431Z,3.43
2017-08-23T14:01:42.753Z,2.73
2017-08-23T14:04:11.045Z,2.33
2017-08-23T14:06:39.349Z,2.70
2017-08-23T14:09:07.653Z,2.63
2017-08-23T14:11:35.964Z,2.57
2017-08-23T14:14:04.265Z,3.03
2017-08-23T14:16:32.573Z,2.33
2017-08-23T14:19:00.877Z,2.43
2017-08-23T14:21:29.193Z,2.63
2017-08-23T14:23:57.508Z,2.77
2017-08-23T14:26:25.854Z,2.90
2017-08-23T14:28:54.160Z,3.30
2017-08-23T14:31:23.229Z,3.23
2017-08-23T14:33:51.544Z,2.97
2017-08-23T14:36:19.846Z,3.33
2017-08-23T14:38:48.169Z,2.80
2017-08-23T14:41:16.469Z,2.47
2017-08-23T14:43:44.786Z,3.00
2017-08-23T14:46:13.090Z,2.10
2017-08-23T14:48:41.469Z,2.77
2017-08-23T14:51:09.778Z,3.10
2017-08-23T14:53:38.077Z,3.30
2017-08-23T14:56:06.397Z,2.63
2017-08-23T14:58:34.697Z,1.90
2017-08-23T15:01:03.009Z,2.43
2017-08-23T15:03:31.314Z,2.73
2017-08-23T15:05:59.635Z,2.90
2017-08-23T15:08:27.935Z,2.60
2017-08-23T15:10:56.241Z,2.03
2017-08-23T15:13:24.543Z,2.40
2017-08-23T15:15:52.880Z,2.57
2017-08-23T15:18:21.191Z,1.90
2017-08-23T15:20:49.491Z,2.20
2017-08-23T15:23:17.865Z,2.57
2017-08-23T15:25:46.157Z,2.43
2017-08-23T15:28:14.461Z,2.57
2017-08-23T15:30:42.759Z,2.43
2017-08-23T15:33:11.073Z,2.77
2017-08-23T15:35:39.365Z,2.17
2017-08-23T15:38:07.693Z,2.10
2017-08-23T15:40:36.004Z,2.90
2017-08-23T15:43:04.293Z,1.90
2017-08-23T15:45:32.622Z,2.60
2017-08-23T15:48:00.915Z,2.27
2017-08-23T15:50:29.215Z,2.50
2017-08-23T15:52:57.513Z,1.90
2017-08-23T15:55:25.825Z,2.30
2017-08-23T15:57:54.194Z,1.90
2017-08-23T16:00:22.529Z,2.50
2017-08-23T16:02:50.847Z,2.33
2017-08-23T16:05:19.145Z,2.00
2017-08-23T16:07:47.444Z,2.73
2017-08-23T16:10:15.739Z,2.10
2017-08-23T16:12:44.100Z,1.43
2017-08-23T16:15:12.845Z,2.60
2017-08-23T16:17:41.154Z,2.30
2017-08-23T16:20:09.445Z,2.60
2017-08-23T16:22:37.785Z,2.67
2017-08-23T16:25:06.076Z,2.20
2017-08-23T16:27:34.436Z,2.60
2017-08-23T16:30:02.751Z,2.47
2017-08-23T16:32:31.049Z,1.90
2017-08-23T16:34:59.365Z,2.37
2017-08-23T16:37:27.686Z,2.90
2017-08-23T16:39:55.988Z,3.40
2017-08-23T16:42:24.287Z,2.40
2017-08-23T16:44:52.626Z,2.40
2017-08-23T16:47:20.920Z,2.93
2017-08-23T16:49:49.213Z,2.23
2017-08-23T16:52:17.524Z,2.40
2017-08-23T16:54:45.820Z,1.60
2017-08-23T16:57:14.188Z,2.10
2017-08-23T16:59:42.476Z,3.27
2017-08-23T17:02:10.810Z,2.93
2017-08-23T17:04:39.144Z,2.13
2017-08-23T17:07:07.778Z,2.30
2017-08-23T17:09:36.105Z,2.60
2017-08-23T17:12:04.396Z,2.37
2017-08-23T17:14:32.708Z,2.40
2017-08-23T17:17:01.002Z,2.60
2017-08-23T17:19:29.308Z,2.57
2017-08-23T17:21:57.608Z,2.77
2017-08-23T17:24:25.915Z,2.17
2017-08-23T17:26:54.243Z,3.60
2017-08-23T17:29:22.574Z,3.03
2017-08-23T17:31:50.866Z,3.07
2017-08-23T17:34:19.158Z,2.50
2017-08-23T17:36:47.489Z,2.33
2017-08-23T17:39:15.793Z,2.70
2017-08-23T17:41:44.097Z,2.33
2017-08-23T17:44:12.388Z,2.57
2017-08-23T17:46:40.689Z,2.77
2017-08-23T17:49:08.984Z,3.10
2017-08-23T17:51:37.308Z,3.60
2017-08-23T17:54:05.595Z,3.57
2017-08-23T17:56:33.904Z,4.00
2017-08-23T17:59:02.204Z,3.27
2017-08-23T18:01:30.502Z,3.67
2017-08-23T18:03:58.818Z,3.47
2017-08-23T18:06:27.122Z,3.20
2017-08-23T18:08:55.432Z,3.10
2017-08-23T18:11:23.730Z,2.80
2017-08-23T18:13:52.092Z,3.20
2017-08-23T18:16:21.181Z,3.20
2017-08-23T18:18:49.473Z,3.43
2017-08-23T18:21:17.776Z,2.80
2017-08-23T18:23:46.082Z,2.90
2017-08-23T18:26:14.393Z,2.80
2017-08-23T18:28:42.692Z,2.90
2017-08-23T18:31:10.992Z,2.80
2017-08-23T18:33:39.298Z,3.03
2017-08-23T18:36:07.617Z,4.53
2017-08-23T18:38:35.909Z,3.60
2017-08-23T18:41:04.209Z,3.30
2017-08-23T18:43:32.578Z,3.43
2017-08-23T18:46:00.874Z,3.70
2017-08-23T18:48:29.181Z,3.13
2017-08-23T18:50:57.486Z,3.50
2017-08-23T18:53:25.799Z,4.57
2017-08-23T18:55:54.084Z,4.20
2017-08-23T18:58:22.397Z,4.67
2017-08-23T19:00:50.684Z,4.53
2017-08-23T19:03:18.985Z,4.57
2017-08-23T19:05:47.289Z,4.67
2017-08-23T19:08:15.593Z,4.77
2017-08-23T19:10:43.893Z,4.77
2017-08-23T19:13:12.188Z,4.90
2017-08-23T19:15:40.501Z,4.33
2017-08-23T19:18:08.796Z,4.47
2017-08-23T19:20:37.113Z,4.23
2017-08-23T19:23:05.413Z,4.50
2017-08-23T19:25:33.709Z,4.50
2017-08-23T19:28:02.065Z,5.10
2017-08-23T19:30:30.365Z,5.33
2017-08-23T19:32:58.673Z,5.40
2017-08-23T19:35:26.979Z,6.53
2017-08-23T19:37:55.321Z,7.53
2017-08-23T19:40:23.623Z,6.90
2017-08-23T19:42:51.934Z,7.70
2017-08-23T19:45:20.253Z,7.10
2017-08-23T19:47:48.557Z,6.70
2017-08-23T19:50:16.879Z,6.30
2017-08-23T19:52:45.369Z,5.97
2017-08-23T19:55:13.700Z,5.00
2017-08-23T19:57:41.997Z,5.07
2017-08-23T20:00:10.292Z,5.17
2017-08-23T20:02:38.601Z,5.20
2017-08-23T20:05:06.890Z,3.90
2017-08-23T20:07:35.202Z,3.50
2017-08-23T20:10:03.498Z,3.97
2017-08-23T20:12:31.867Z,3.97
2017-08-23T20:15:00.158Z,4.20
2017-08-23T20:17:28.557Z,4.77
2017-08-23T20:19:56.871Z,4.40
2017-08-23T20:22:25.184Z,4.43
2017-08-23T20:24:53.488Z,4.70
2017-08-23T20:27:21.786Z,4.20
2017-08-23T20:29:50.098Z,5.30
2017-08-23T20:32:18.393Z,5.87
2017-08-23T20:34:46.696Z,5.63
2017-08-23T20:37:14.992Z,6.07
2017-08-23T20:39:43.301Z,5.90
2017-08-23T20:42:11.618Z,6.43
2017-08-23T20:44:39.962Z,5.97
2017-08-23T20:47:08.269Z,6.30
2017-08-23T20:49:36.564Z,5.57
2017-08-23T20:52:04.887Z,5.63
2017-08-23T20:54:33.200Z,6.13
2017-08-23T20:57:01.500Z,5.70
2017-08-23T20:59:29.810Z,5.20
2017-08-23T21:01:58.126Z,5.70
2017-08-23T21:04:26.437Z,5.93
2017-08-23T21:06:54.776Z,6.73
2017-08-23T21:09:23.077Z,6.00
2017-08-23T21:11:51.442Z,6.30
2017-08-23T21:14:19.749Z,6.67
2017-08-23T21:16:48.066Z,9.03
2017-08-23T21:19:16.385Z,7.87
2017-08-23T21:21:44.693Z,8.30
2017-08-23T21:24:13.015Z,7.23
2017-08-23T21:26:41.321Z,8.00
2017-08-23T21:29:09.657Z,6.70
2017-08-23T21:31:37.969Z,7.27
2017-08-23T21:34:06.304Z,7.00
2017-08-23T21:36:34.603Z,5.40
2017-08-23T21:39:02.930Z,6.43
2017-08-23T21:41:31.257Z,7.30
2017-08-23T21:43:59.557Z,7.60
2017-08-23T21:46:27.890Z,7.00
2017-08-23T21:48:56.216Z,8.23
2017-08-23T21:51:24.529Z,8.00
2017-08-23T21:53:52.856Z,9.37
2017-08-23T21:56:21.192Z,9.10
2017-08-23T21:58:50.209Z,8.50
2017-08-23T22:01:18.508Z,8.70
2017-08-23T22:03:46.830Z,8.23
2017-08-23T22:06:15.143Z,8.17
2017-08-23T22:08:43.462Z,9.57
2017-08-23T22:11:11.774Z,9.57
2017-08-23T22:13:40.088Z,10.33
2017-08-23T22:16:08.400Z,8.40
2017-08-23T22:18:36.742Z,7.60
2017-08-23T22:21:05.041Z,7.13
2017-08-23T22:23:33.355Z,8.50
2017-08-23T22:26:01.672Z,8.27
2017-08-23T22:28:29.989Z,7.47
2017-08-23T22:30:58.320Z,8.53
2017-08-23T22:33:26.633Z,7.90
2017-08-23T22:35:54.947Z,8.90
2017-08-23T22:38:24.033Z,7.20
2017-08-23T22:40:52.338Z,7.53
2017-08-23T22:43:20.645Z,6.20
2017-08-23T22:45:48.969Z,7.30
2017-08-23T22:48:17.269Z,9.23
2017-08-23T22:50:45.580Z,8.80
2017-08-23T22:53:13.898Z,7.97
2017-08-23T22:55:42.216Z,7.70
2017-08-23T22:58:10.532Z,7.50
2017-08-23T23:00:38.836Z,8.17
2017-08-23T23:03:07.146Z,8.50
2017-08-23T23:05:35.457Z,7.60
2017-08-23T23:08:04.212Z,8.20
2017-08-23T23:10:32.527Z,8.20
2017-08-23T23:13:00.833Z,8.47
2017-08-23T23:15:29.206Z,8.47
2017-08-23T23:17:57.519Z,7.80
2017-08-23T23:20:25.844Z,7.00
2017-08-23T23:22:54.149Z,7.00
2017-08-23T23:25:22.461Z,7.80
2017-08-23T23:27:50.770Z,7.60
2017-08-23T23:30:19.125Z,6.90
2017-08-23T23:32:47.437Z,8.00
2017-08-23T23:35:15.748Z,8.30
2017-08-23T23:37:44.061Z,7.90
2017-08-23T23:40:12.364Z,7.87
2017-08-23T23:42:40.680Z,8.73
2017-08-23T23:45:09.028Z,7.50
2017-08-23T23:47:37.340Z,7.77
2017-08-23T23:50:05.646Z,8.00
2017-08-23T23:52:33.974Z,7.80
2017-08-23T23:55:02.279Z,7.53
2017-08-23T23:57:30.593Z,8.57
2017-08-23T23:59:58.913Z,8.77
